Time;durP1;ratioP1;P1;durP2;ratioP2;P2;SDS_P1;SDS_P2;PMS_P1;PMS_P2;Temp;Humidity;BMP_temperature;BMP_pressure;BME280_temperature;BME280_humidity;BME280_pressure;Samples;Min_cycle;Max_cycle;Signal;HPM_P1;HPM_P2
2023/07/22 00:02:30;;;;;;;5.63;4.45;;;;;;;14.43;86.43;100561.00;4926328;29;20034;-75
2023/07/22 00:05:34;;;;;;;8.23;3.63;;;;;;;14.36;86.05;100561.56;4926961;29;20477;-75
2023/07/22 00:08:38;;;;;;;7.13;4.50;;;;;;;14.22;86.55;100558.97;4927915;29;20050;-76
2023/07/22 00:11:41;;;;;;;6.15;4.28;;;;;;;14.33;86.47;100567.00;4928215;29;20106;-75
2023/07/22 00:14:44;;;;;;;5.53;3.97;;;;;;;14.43;85.57;100562.81;4924896;29;20465;-75
2023/07/22 00:17:48;;;;;;;6.60;3.42;;;;;;;14.58;85.08;100564.44;4924945;29;20070;-75
2023/07/22 00:20:52;;;;;;;6.22;4.38;;;;;;;14.39;85.46;100564.81;4914813;29;20107;-75
2023/07/22 00:23:55;;;;;;;6.85;4.88;;;;;;;14.30;86.28;100564.59;4899248;29;20092;-75
2023/07/22 00:26:58;;;;;;;8.77;5.43;;;;;;;14.21;87.13;100565.19;4899050;29;20528;-74
2023/07/22 00:30:08;;;;;;;10.30;5.55;;;;;;;14.09;87.95;100566.84;4899254;29;20451;-75
2023/07/22 00:33:12;;;;;;;11.85;6.43;;;;;;;14.07;87.92;100573.97;4886840;29;20091;-75
2023/07/22 00:36:15;;;;;;;7.78;5.20;;;;;;;14.03;87.92;100573.34;4898628;29;20048;-75
2023/07/22 00:39:20;;;;;;;12.07;5.65;;;;;;;14.04;88.03;100568.94;4887208;29;20047;-75
2023/07/22 00:42:24;;;;;;;8.25;5.75;;;;;;;14.05;88.20;100560.97;4899208;29;20100;-75
2023/07/22 00:45:27;;;;;;;10.43;5.22;;;;;;;14.08;87.61;100566.00;4896929;29;20522;-75
2023/07/22 00:48:32;;;;;;;7.88;5.57;;;;;;;13.99;87.98;100560.53;4898291;29;20104;-75
2023/07/22 00:51:36;;;;;;;10.35;5.38;;;;;;;14.04;87.60;100564.53;4897869;29;20423;-75
2023/07/22 00:54:39;;;;;;;7.60;4.85;;;;;;;14.00;87.59;100560.41;4898523;29;20559;-76
2023/07/22 00:57:42;;;;;;;7.82;6.00;;;;;;;14.01;86.86;100561.25;4898290;29;20422;-75
2023/07/22 01:00:46;;;;;;;8.18;5.55;;;;;;;13.94;87.02;100558.19;4897599;29;20084;-75
2023/07/22 01:03:52;;;;;;;7.47;4.95;;;;;;;13.87;86.82;100565.63;4897538;29;20508;-75
2023/07/22 01:06:56;;;;;;;6.97;5.82;;;;;;;13.75;86.49;100562.94;4885598;29;20139;-76
2023/07/22 01:09:59;;;;;;;11.70;4.90;;;;;;;13.76;86.76;100559.41;4897332;29;20046;-75
2023/07/22 01:13:07;;;;;;;12.88;5.57;;;;;;;13.70;87.39;100556.22;4875556;29;20108;-77
2023/07/22 01:16:12;;;;;;;9.15;5.75;;;;;;;13.67;88.25;100558.19;4897469;29;20076;-76
2023/07/22 01:19:18;;;;;;;11.30;6.50;;;;;;;13.73;87.31;100552.56;4897545;29;20410;-80
2023/07/22 01:22:23;;;;;;;8.48;5.85;;;;;;;13.69;87.53;100554.53;4886376;29;20043;-76
2023/07/22 01:25:29;;;;;;;10.43;5.68;;;;;;;13.67;87.68;100551.16;4897763;29;20064;-76
2023/07/22 01:28:36;;;;;;;7.82;6.00;;;;;;;13.77;87.21;100553.19;4886342;29;20071;-76
2023/07/22 01:31:39;;;;;;;9.60;6.40;;;;;;;13.88;85.85;100554.19;4886615;29;20061;-78
2023/07/22 01:34:46;;;;;;;10.48;6.40;;;;;;;13.90;85.46;100568.06;4886211;29;20043;-75
2023/07/22 01:37:50;;;;;;;8.57;7.13;;;;;;;13.73;85.82;100566.53;4897932;29;20414;-76
2023/07/22 01:40:56;;;;;;;11.15;6.15;;;;;;;13.62;86.71;100563.75;4897988;29;20103;-76
2023/07/22 01:43:59;;;;;;;8.85;5.93;;;;;;;13.57;86.95;100552.69;4897893;29;20418;-75
2023/07/22 01:47:03;;;;;;;12.80;6.65;;;;;;;13.49;87.32;100550.53;4908841;29;20450;-75
2023/07/22 01:50:07;;;;;;;9.52;6.30;;;;;;;13.54;87.48;100558.16;4916537;29;20046;-75
2023/07/22 01:53:10;;;;;;;10.15;5.90;;;;;;;13.59;87.49;100553.47;4915743;29;20043;-75
2023/07/22 01:56:13;;;;;;;12.32;6.45;;;;;;;13.49;87.50;100552.34;4915382;29;20051;-75
2023/07/22 01:59:17;;;;;;;7.85;6.57;;;;;;;13.52;87.14;100554.78;4913661;29;20102;-75
2023/07/22 02:02:20;;;;;;;6.85;5.65;;;;;;;13.51;87.12;100552.25;4914251;29;20107;-75
2023/07/22 02:05:23;;;;;;;9.75;6.32;;;;;;;13.47;86.87;100546.34;4915398;29;20130;-74
2023/07/22 02:08:26;;;;;;;7.93;5.85;;;;;;;13.36;87.49;100554.91;4915744;29;20082;-74
2023/07/22 02:11:30;;;;;;;10.82;6.40;;;;;;;13.39;87.39;100556.50;4915605;29;20111;-75
2023/07/22 02:14:33;;;;;;;10.95;6.50;;;;;;;13.24;87.84;100558.25;4915914;29;20107;-75
2023/07/22 02:17:36;;;;;;;7.30;6.45;;;;;;;13.23;87.92;100557.44;4916358;29;20470;-74
2023/07/22 02:20:43;;;;;;;11.40;6.80;;;;;;;13.25;87.97;100560.84;4915327;29;20101;-75
2023/07/22 02:23:46;;;;;;;9.93;6.38;;;;;;;13.20;88.06;100552.38;4916410;29;20100;-75
2023/07/22 02:26:49;;;;;;;9.30;7.15;;;;;;;13.21;88.48;100553.22;4916469;29;20118;-75
2023/07/22 02:29:52;;;;;;;8.55;6.13;;;;;;;13.15;88.23;100554.44;4915375;29;20043;-74
2023/07/22 02:32:56;;;;;;;8.70;5.93;;;;;;;13.13;88.60;100558.09;4916040;29;20079;-74
2023/07/22 02:35:59;;;;;;;7.30;6.30;;;;;;;13.10;88.41;100551.25;4916516;29;20054;-74
2023/07/22 02:39:03;;;;;;;7.57;6.32;;;;;;;13.12;87.95;100549.41;4916209;29;20167;-74
2023/07/22 02:42:07;;;;;;;11.05;6.53;;;;;;;13.08;88.07;100557.53;4918888;29;20042;-74
2023/07/22 02:45:10;;;;;;;7.32;6.57;;;;;;;13.04;88.06;100554.25;4919829;29;20050;-74
2023/07/22 02:48:14;;;;;;;10.70;6.75;;;;;;;13.00;88.69;100551.00;4919953;29;20067;-74
2023/07/22 02:51:17;;;;;;;11.48;6.28;;;;;;;13.10;88.76;100556.50;4920105;29;20533;-74
2023/07/22 02:54:20;;;;;;;9.00;6.47;;;;;;;13.03;88.08;100552.59;4919599;29;20051;-74
2023/07/22 02:57:24;;;;;;;7.80;6.90;;;;;;;12.92;88.70;100550.63;4918919;29;20098;-75
2023/07/22 03:00:27;;;;;;;10.90;7.10;;;;;;;12.90;88.67;100551.66;4919542;29;20050;-74
2023/07/22 03:03:33;;;;;;;8.45;6.00;;;;;;;13.01;88.20;100560.53;4918310;29;20062;-73
2023/07/22 03:06:36;;;;;;;14.20;7.10;;;;;;;12.96;87.35;100565.25;4918761;29;20705;-73
2023/07/22 03:09:45;;;;;;;8.25;6.38;;;;;;;12.86;87.99;100568.50;4919410;29;20051;-75
2023/07/22 03:12:49;;;;;;;7.80;6.43;;;;;;;12.74;88.54;100565.72;4918318;29;20587;-75
2023/07/22 03:15:52;;;;;;;8.50;6.32;;;;;;;12.63;89.10;100578.63;4918473;29;20110;-74
2023/07/22 03:18:59;;;;;;;8.18;7.20;;;;;;;12.70;88.81;100569.47;4918452;29;20159;-75
2023/07/22 03:22:03;;;;;;;13.05;6.80;;;;;;;12.67;88.68;100569.66;4918157;29;20546;-75
2023/07/22 03:25:09;;;;;;;7.88;6.10;;;;;;;12.66;88.84;100573.19;4918616;29;20078;-75
2023/07/22 03:28:13;;;;;;;7.78;6.95;;;;;;;12.68;88.38;100576.56;4917303;29;20168;-75
2023/07/22 03:31:17;;;;;;;9.98;6.82;;;;;;;12.53;89.26;100578.31;4918622;29;20080;-74
2023/07/22 03:34:20;;;;;;;9.57;7.10;;;;;;;12.53;89.13;100582.72;4907159;29;20051;-74
2023/07/22 03:37:28;;;;;;;8.23;7.15;;;;;;;12.59;89.37;100582.38;4918848;29;20517;-75
2023/07/22 03:40:32;;;;;;;9.52;7.47;;;;;;;12.63;88.99;100583.88;4918718;29;20047;-75
2023/07/22 03:43:35;;;;;;;8.02;7.22;;;;;;;12.48;90.25;100577.78;4917526;29;20082;-75
2023/07/22 03:46:39;;;;;;;7.43;6.72;;;;;;;12.55;89.44;100583.50;4917121;29;20079;-75
2023/07/22 03:49:42;;;;;;;9.32;6.72;;;;;;;12.49;89.85;100582.06;4917697;29;20116;-75
2023/07/22 03:52:45;;;;;;;;;;;;;;;12.53;90.07;100588.81;4918232;29;20536;-75
2023/07/22 03:55:51;;;;;;;9.05;6.65;;;;;;;12.50;90.07;100575.88;4918584;29;20054;-75
2023/07/22 03:58:55;;;;;;;6.93;6.05;;;;;;;12.66;88.64;100581.06;4917911;29;20413;-75
2023/07/22 04:01:58;;;;;;;10.35;6.57;;;;;;;12.75;87.92;100583.13;4917947;29;20586;-74
2023/07/22 04:05:01;;;;;;;7.80;5.57;;;;;;;12.83;87.08;100585.31;4917723;29;20425;-75
2023/07/22 04:08:05;;;;;;;8.40;5.82;;;;;;;12.57;88.18;100594.72;4918029;29;20103;-75
2023/07/22 04:11:08;;;;;;;8.73;6.10;;;;;;;12.71;87.30;100586.88;4918347;29;20431;-75
2023/07/22 04:14:12;;;;;;;;;;;;;;;12.72;87.07;100592.97;4917741;29;20079;-75
2023/07/22 04:17:15;;;;;;;6.10;5.50;;;;;;;12.75;86.66;100588.38;4918433;29;19921;-75
2023/07/22 04:20:18;;;;;;;6.63;5.43;;;;;;;12.84;87.03;100591.41;4917503;29;20051;-75
2023/07/22 04:23:22;;;;;;;6.05;5.35;;;;;;;12.92;86.20;100584.75;4918163;29;20414;-75
2023/07/22 04:26:25;;;;;;;8.10;6.10;;;;;;;12.99;85.98;100588.69;4917426;29;20131;-76
2023/07/22 04:29:31;;;;;;;10.02;6.28;;;;;;;12.76;87.14;100590.09;4917604;29;20138;-75
2023/07/22 04:32:34;;;;;;;10.90;6.15;;;;;;;12.64;87.61;100596.06;4917387;29;20083;-76
2023/07/22 04:35:40;;;;;;;9.35;6.38;;;;;;;12.47;88.63;100593.59;4917150;29;20051;-75
2023/07/22 04:38:44;;;;;;;7.60;6.38;;;;;;;12.44;88.70;100596.38;4917948;29;20051;-75
2023/07/22 04:41:47;;;;;;;9.05;6.78;;;;;;;12.40;88.92;100600.97;4917819;29;20063;-75
2023/07/22 04:44:50;;;;;;;8.27;7.38;;;;;;;12.36;89.24;100603.88;4917789;29;20112;-75
2023/07/22 04:47:54;;;;;;;8.05;6.00;;;;;;;12.47;89.11;100601.44;4917824;29;20099;-75
2023/07/22 04:50:57;;;;;;;10.98;6.68;;;;;;;12.60;88.57;100599.78;4917711;29;20103;-76
2023/07/22 04:54:01;;;;;;;7.20;6.50;;;;;;;12.72;87.43;100596.44;4916290;29;20104;-76
2023/07/22 04:57:04;;;;;;;8.30;5.90;;;;;;;12.76;87.09;100599.72;4916965;29;20575;-75
2023/07/22 05:00:09;;;;;;;9.45;6.03;;;;;;;12.76;86.84;100595.34;4917478;29;20051;-74
2023/07/22 05:03:13;;;;;;;10.55;5.60;;;;;;;12.85;86.41;100588.66;4917728;29;20506;-75
2023/07/22 05:06:17;;;;;;;6.03;5.43;;;;;;;12.93;86.38;100596.09;4916402;29;20055;-75
2023/07/22 05:09:20;;;;;;;6.03;4.93;;;;;;;12.92;85.79;100595.25;4905881;29;20074;-75
2023/07/22 05:12:23;;;;;;;9.18;5.63;;;;;;;12.99;85.42;100590.47;4917044;29;20083;-75
2023/07/22 05:15:27;;;;;;;6.45;5.22;;;;;;;13.00;86.10;100589.53;4917315;29;20043;-75
2023/07/22 05:18:30;;;;;;;13.57;5.85;;;;;;;13.07;85.75;100585.56;4917343;29;20074;-75
2023/07/22 05:21:33;;;;;;;6.22;5.63;;;;;;;13.08;85.63;100576.78;4916546;29;20094;-75
2023/07/22 05:24:37;;;;;;;7.65;5.45;;;;;;;12.93;86.82;100582.97;4916719;29;20509;-75
2023/07/22 05:27:40;;;;;;;9.27;6.00;;;;;;;12.92;86.98;100576.00;4916799;29;20417;-74
2023/07/22 05:30:44;;;;;;;7.80;5.75;;;;;;;13.02;86.67;100579.78;4916899;29;20067;-75
2023/07/22 05:33:48;;;;;;;6.72;5.40;;;;;;;12.87;87.80;100583.34;4916700;29;20103;-74
2023/07/22 05:36:50;;;;;;;7.72;6.93;;;;;;;12.94;87.14;100582.84;4915095;29;20051;-74
2023/07/22 05:39:54;;;;;;;8.73;5.05;;;;;;;13.13;87.17;100590.44;4916607;29;20573;-72
2023/07/22 05:43:01;;;;;;;6.93;5.05;;;;;;;13.40;84.40;100576.56;4916763;29;20137;-77
2023/07/22 05:46:04;;;;;;;6.32;4.68;;;;;;;13.48;83.37;100582.19;4916978;29;20618;-74
2023/07/22 05:49:11;;;;;;;5.53;5.03;;;;;;;13.60;82.39;100575.31;4917033;29;20070;-73
2023/07/22 05:52:14;;;;;;;7.05;3.90;;;;;;;13.68;82.62;100579.09;4916457;29;20046;-75
2023/07/22 05:55:21;;;;;;;6.10;4.07;;;;;;;13.78;82.51;100578.53;4916008;29;20783;-76
2023/07/22 05:58:25;;;;;;;5.82;4.30;;;;;;;13.86;81.56;100576.25;4916067;29;20086;-75
2023/07/22 06:01:29;;;;;;;7.28;4.95;;;;;;;13.87;81.53;100584.03;4916010;29;20530;-75
2023/07/22 06:04:32;;;;;;;6.00;5.10;;;;;;;13.75;82.20;100583.97;4916670;29;20066;-75
2023/07/22 06:07:36;;;;;;;6.95;5.50;;;;;;;13.52;83.30;100591.53;4916249;29;20059;-74
2023/07/22 06:10:42;;;;;;;5.50;4.93;;;;;;;13.46;83.97;100592.81;4916425;29;20055;-74
2023/07/22 06:13:46;;;;;;;9.70;6.13;;;;;;;13.14;85.22;100594.75;4915533;29;20051;-72
2023/07/22 06:16:49;;;;;;;;;;;;;;;13.21;85.15;100600.50;4916035;29;20051;-74
2023/07/22 06:19:52;;;;;;;7.50;5.40;;;;;;;13.25;84.99;100600.22;4916084;29;20293;-75
2023/07/22 06:23:04;;;;;;;5.45;4.95;;;;;;;13.51;84.50;100597.75;4915875;29;20275;-75
2023/07/22 06:26:07;;;;;;;6.38;5.55;;;;;;;13.55;85.24;100598.41;4923462;29;20625;-76
2023/07/22 06:29:11;;;;;;;6.97;6.15;;;;;;;13.73;84.60;100591.97;4923574;29;20047;-73
2023/07/22 06:32:16;;;;;;;6.57;5.85;;;;;;;13.62;85.22;100592.63;4935192;29;20573;-73
2023/07/22 06:35:20;;;;;;;8.45;5.88;;;;;;;13.81;85.09;100594.09;4935581;29;20095;-74
2023/07/22 06:38:24;;;;;;;7.68;5.88;;;;;;;13.79;85.27;100596.84;4911386;29;20050;-75
2023/07/22 06:41:34;;;;;;;7.72;4.75;;;;;;;13.92;85.02;100597.72;4934530;29;20099;-75
2023/07/22 06:44:36;;;;;;;6.35;5.18;;;;;;;14.06;84.47;100598.59;4935437;29;20561;-79
2023/07/22 06:47:40;;;;;;;7.18;4.85;;;;;;;14.05;84.09;100597.75;4935362;29;20057;-73
2023/07/22 06:50:50;;;;;;;10.13;5.25;;;;;;;14.13;84.08;100595.44;4934047;29;20051;-74
2023/07/22 06:53:53;;;;;;;6.40;4.57;;;;;;;14.31;83.90;100593.41;4934126;29;20054;-74
2023/07/22 06:56:56;;;;;;;5.35;4.63;;;;;;;14.25;83.23;100600.84;4933540;29;20131;-75
2023/07/22 07:00:01;;;;;;;5.85;5.18;;;;;;;14.46;83.53;100599.44;4922708;29;20189;-72
2023/07/22 07:03:04;;;;;;;5.72;4.90;;;;;;;14.57;83.00;100594.31;4934451;29;20046;-73
2023/07/22 07:06:08;;;;;;;5.88;4.47;;;;;;;14.67;83.29;100588.41;4934241;29;20523;-73
2023/07/22 07:09:12;;;;;;;5.32;4.82;;;;;;;14.69;83.61;100589.16;4934608;29;20082;-79
2023/07/22 07:12:15;;;;;;;6.70;4.45;;;;;;;14.75;82.34;100591.38;4934196;29;20046;-70
2023/07/22 07:15:18;;;;;;;8.00;5.18;;;;;;;14.64;83.14;100587.72;4933824;29;20568;-77
2023/07/22 07:18:22;;;;;;;11.75;4.80;;;;;;;14.73;83.41;100580.09;4934149;29;20058;-76
2023/07/22 07:21:26;;;;;;;8.05;5.10;;;;;;;14.84;83.08;100580.22;4933007;29;20082;-77
2023/07/22 07:24:29;;;;;;;6.30;4.50;;;;;;;14.93;84.05;100578.72;4934270;29;20054;-75
2023/07/22 07:27:33;;;;;;;8.52;4.30;;;;;;;14.98;84.82;100584.53;4934808;29;20067;-74
2023/07/22 07:30:37;;;;;;;5.88;4.70;;;;;;;15.08;85.11;100577.66;4926103;29;20079;-76
2023/07/22 07:33:40;;;;;;;8.25;4.22;;;;;;;15.23;84.81;100578.38;4936627;29;20055;-75
2023/07/22 07:36:44;;;;;;;6.55;4.53;;;;;;;15.33;85.15;100582.03;4937430;29;20106;-76
2023/07/22 07:39:52;;;;;;;6.13;4.72;;;;;;;15.44;84.86;100578.63;4936290;29;20118;-75
2023/07/22 07:42:57;;;;;;;10.82;4.25;;;;;;;15.55;84.06;100576.91;4937548;29;20042;-73
2023/07/22 07:46:13;;;;;;;5.18;4.22;;;;;;;15.64;83.71;100566.66;4937236;29;20054;-81
2023/07/22 07:49:17;;;;;;;6.78;4.28;;;;;;;15.74;83.72;100570.34;4937462;29;20099;-77
2023/07/22 07:52:21;;;;;;;5.97;4.95;;;;;;;15.82;84.15;100570.59;4937500;29;20143;-76
2023/07/22 07:55:25;;;;;;;14.98;5.90;;;;;;;15.95;84.61;100570.53;4934888;29;20106;-77
2023/07/22 07:58:29;;;;;;;9.23;4.82;;;;;;;16.03;84.39;100561.13;4910170;29;20046;-75
2023/07/22 08:01:32;;;;;;;27.88;6.97;;;;;;;16.30;84.10;100562.63;4916580;29;20055;-73
2023/07/22 08:04:35;;;;;;;7.15;4.78;;;;;;;16.45;82.91;100561.47;4916829;29;20062;-72
2023/07/22 08:07:38;;;;;;;10.07;5.65;;;;;;;16.55;82.71;100555.50;4916947;29;20059;-72
2023/07/22 08:10:45;;;;;;;18.52;5.72;;;;;;;16.60;82.69;100550.72;4917968;29;20505;-72
2023/07/22 08:13:52;;;;;;;11.27;5.78;;;;;;;16.66;83.83;100548.44;4907018;29;20059;-73
2023/07/22 08:17:01;;;;;;;15.00;4.22;;;;;;;16.76;84.46;100550.41;4885547;29;20067;-72
2023/07/22 08:20:07;;;;;;;52.60;8.15;;;;;;;16.83;83.34;100557.72;4898835;29;20490;-72
2023/07/22 08:23:16;;;;;;;53.13;9.43;;;;;;;16.96;83.38;100547.84;4898164;29;20559;-72
2023/07/22 08:26:21;;;;;;;12.82;4.82;;;;;;;17.05;83.64;100548.94;4903316;29;20095;-77
2023/07/22 08:29:34;;;;;;;8.30;4.65;;;;;;;17.26;82.76;100545.53;4906345;29;20099;-79
2023/07/22 08:32:47;;;;;;;13.38;5.57;;;;;;;17.51;82.76;100539.13;4915458;29;20407;-78
2023/07/22 08:35:53;;;;;;;23.80;6.60;;;;;;;17.96;81.29;100539.00;4917454;29;20071;-79
2023/07/22 08:38:57;;;;;;;11.90;4.65;;;;;;;18.03;78.50;100537.53;4917002;29;20087;-78
2023/07/22 08:42:03;;;;;;;7.65;3.63;;;;;;;18.09;76.86;100529.06;4916815;29;20139;-76
2023/07/22 08:45:10;;;;;;;8.73;3.92;;;;;;;18.02;76.95;100533.19;4915692;29;20107;-77
2023/07/22 08:48:18;;;;;;;7.72;4.13;;;;;;;17.98;77.00;100531.78;4924043;29;20517;-77
2023/07/22 08:51:23;;;;;;;10.45;4.03;;;;;;;18.00;73.84;100532.50;4924326;29;20079;-77
2023/07/22 08:54:28;;;;;;;7.13;4.10;;;;;;;18.12;72.46;100527.03;4920771;29;20123;-78
2023/07/22 09:00:57;;;;;;;10.68;4.63;;;;;;;18.47;68.85;100519.69;4903245;29;20067;-78
2023/07/22 09:04:00;;;;;;;9.20;4.13;;;;;;;18.49;58.46;100523.88;4897291;29;20047;-77
2023/07/22 09:07:04;;;;;;;5.15;3.67;;;;;;;18.61;58.30;100521.19;4901295;29;20075;-79
2023/07/22 09:10:12;;;;;;;7.25;3.58;;;;;;;18.69;57.21;100521.34;4917278;29;20103;-79
2023/07/22 09:13:18;;;;;;;5.15;3.30;;;;;;;18.75;56.47;100513.72;4917125;29;20047;-81
2023/07/22 09:16:24;;;;;;;6.30;3.85;;;;;;;18.84;56.81;100514.75;4903553;29;20051;-81
2023/07/22 09:19:30;;;;;;;7.40;3.92;;;;;;;19.02;57.07;100512.31;4931124;29;20098;-77
2023/07/22 09:22:35;;;;;;;5.60;3.67;;;;;;;19.10;55.51;100522.22;4934833;29;20050;-77
2023/07/22 09:25:39;;;;;;;8.68;3.80;;;;;;;19.15;54.58;100518.19;4934214;29;20074;-77
2023/07/22 09:28:50;;;;;;;6.53;3.90;;;;;;;19.21;52.82;100514.19;4935937;29;20078;-77
2023/07/22 09:31:54;;;;;;;8.63;3.70;;;;;;;19.25;50.03;100507.63;4935933;29;20481;-77
2023/07/22 09:34:57;;;;;;;8.85;3.85;;;;;;;19.47;49.93;100507.38;4935537;29;20051;-77
2023/07/22 09:38:01;;;;;;;5.47;3.50;;;;;;;19.64;48.97;100497.09;4935444;29;20098;-77
2023/07/22 09:41:06;;;;;;;6.20;3.55;;;;;;;19.67;48.51;100496.81;4923985;29;20449;-76
2023/07/22 09:44:12;;;;;;;9.93;4.35;;;;;;;19.81;47.78;100496.38;4935740;29;20043;-77
2023/07/22 09:47:16;;;;;;;6.25;3.35;;;;;;;19.87;47.35;100501.13;4923899;29;20102;-76
2023/07/22 09:50:25;;;;;;;6.75;3.22;;;;;;;20.06;47.86;100492.28;4934891;29;20058;-78
2023/07/22 09:53:28;;;;;;;5.57;3.78;;;;;;;20.09;45.94;100488.53;4935268;29;20422;-77
2023/07/22 09:56:42;;;;;;;5.07;3.13;;;;;;;20.14;44.79;100483.63;4928057;29;20043;-77
2023/07/22 09:59:48;;;;;;;5.25;3.28;;;;;;;20.19;44.06;100481.38;4916387;29;20538;-77
2023/07/22 10:02:53;;;;;;;9.10;3.08;;;;;;;20.41;43.67;100504.09;4916236;29;20046;-77
2023/07/22 10:06:00;;;;;;;5.80;2.90;;;;;;;20.47;43.38;100490.25;4914965;29;20407;-77
2023/07/22 10:09:08;;;;;;;5.05;2.90;;;;;;;20.48;41.81;100475.97;4914247;29;20518;-77
2023/07/22 10:12:13;;;;;;;8.52;3.25;;;;;;;20.44;42.20;100474.59;4915191;29;20051;-77
2023/07/22 10:15:19;;;;;;;4.13;2.88;;;;;;;20.47;42.27;100478.78;4915638;29;20151;-77
2023/07/22 10:18:23;;;;;;;6.28;2.85;;;;;;;20.46;41.89;100469.16;4915553;29;20051;-78
2023/07/22 10:21:28;;;;;;;4.70;3.03;;;;;;;20.71;41.82;100480.94;4914824;29;20055;-77
2023/07/22 10:24:32;;;;;;;4.40;3.10;;;;;;;20.86;42.17;100464.38;4915428;29;20175;-77
2023/07/22 10:27:39;;;;;;;4.13;2.78;;;;;;;20.88;40.98;100466.88;4915376;29;20115;-76
2023/07/22 10:30:43;;;;;;;5.82;2.72;;;;;;;20.90;40.78;100457.78;4915612;29;20537;-77
2023/07/22 10:33:47;;;;;;;7.15;3.60;;;;;;;21.02;40.68;100458.41;4914877;29;20059;-79
2023/07/22 10:36:50;;;;;;;6.15;2.60;;;;;;;21.10;40.88;100468.31;4916090;29;20047;-77
2023/07/22 10:39:59;;;;;;;5.05;3.13;;;;;;;20.94;40.63;100452.19;4915959;29;20430;-79
2023/07/22 10:43:06;;;;;;;7.28;2.67;;;;;;;20.96;40.68;100459.00;4916199;29;20095;-77
2023/07/22 10:46:12;;;;;;;4.25;2.90;;;;;;;20.86;41.18;100459.03;4915983;29;20039;-77
2023/07/22 10:49:16;;;;;;;6.47;3.42;;;;;;;20.85;40.46;100451.25;4915842;29;20107;-76
2023/07/22 10:52:45;;;;;;;7.75;2.90;;;;;;;20.89;40.46;100452.59;4915981;29;20067;-76
2023/07/22 10:56:16;;;;;;;8.77;2.83;;;;;;;20.97;40.46;100434.09;4915981;29;20079;-76
2023/07/22 10:59:26;;;;;;;5.00;2.90;;;;;;;21.13;40.80;100425.47;4915042;29;20420;-76
2023/07/22 11:02:30;;;;;;;7.40;3.47;;;;;;;21.30;40.02;100429.13;4917396;29;20566;-77
2023/07/22 11:05:51;;;;;;;9.90;3.63;;;;;;;21.30;40.74;100429.94;4918799;29;20047;-76
2023/07/22 11:08:55;;;;;;;4.65;2.80;;;;;;;21.35;39.40;100424.22;4919130;29;20043;-76
2023/07/22 11:12:03;;;;;;;7.68;2.53;;;;;;;21.48;39.73;100422.00;4919047;29;20513;-76
2023/07/22 11:15:07;;;;;;;6.38;2.60;;;;;;;21.62;40.04;100412.63;4919086;29;20072;-77
2023/07/22 11:18:11;;;;;;;7.95;2.92;;;;;;;21.54;40.04;100415.25;4919013;29;20126;-77
2023/07/22 11:21:14;;;;;;;10.00;3.15;;;;;;;21.64;40.00;100405.34;4919076;29;20159;-76
2023/07/22 11:24:19;;;;;;;5.07;2.90;;;;;;;21.82;39.51;100410.59;4919024;29;20110;-76
2023/07/22 11:27:22;;;;;;;5.78;3.13;;;;;;;21.76;39.04;100414.75;4918092;29;20055;-76
2023/07/22 11:30:27;;;;;;;4.85;2.83;;;;;;;21.85;39.54;100404.97;4918871;29;20050;-77
2023/07/22 11:33:40;;;;;;;8.30;2.53;;;;;;;21.76;38.81;100403.25;4918669;29;20059;-75
2023/07/22 11:36:45;;;;;;;6.88;3.15;;;;;;;21.74;38.91;100389.28;4918615;29;20107;-75
2023/07/22 11:39:51;;;;;;;3.47;2.85;;;;;;;21.62;38.97;100401.16;4916828;29;20051;-74
2023/07/22 11:43:00;;;;;;;5.28;2.40;;;;;;;21.59;39.42;100400.47;4917697;29;20046;-73
2023/07/22 11:46:07;;;;;;;4.63;2.65;;;;;;;21.74;39.24;100395.44;4918259;29;20106;-74
2023/07/22 11:49:10;;;;;;;3.97;2.35;;;;;;;21.69;38.83;100395.03;4918098;29;20047;-75
2023/07/22 11:52:17;;;;;;;7.82;2.60;;;;;;;21.57;38.81;100388.31;4918147;29;20107;-74
2023/07/22 11:55:33;;;;;;;4.97;2.90;;;;;;;21.62;38.58;100374.53;4918372;29;20106;-74
2023/07/22 11:58:39;;;;;;;8.80;2.92;;;;;;;21.62;38.76;100374.53;4918577;29;20518;-76
2023/07/22 12:01:47;;;;;;;4.78;3.00;;;;;;;21.58;38.34;100390.81;4918199;29;20138;-79
2023/07/22 12:04:53;;;;;;;8.90;2.70;;;;;;;21.46;38.90;100385.91;4918236;29;20074;-77
2023/07/22 12:07:56;;;;;;;3.47;2.30;;;;;;;21.72;39.43;100384.09;4918099;29;20098;-76
2023/07/22 12:11:00;;;;;;;7.72;3.10;;;;;;;22.00;38.55;100374.13;4918133;29;20138;-75
2023/07/22 12:14:10;;;;;;;8.63;3.58;;;;;;;22.21;37.34;100372.94;4916866;29;20046;-73
2023/07/22 12:17:14;;;;;;;6.63;2.97;;;;;;;22.33;38.07;100363.66;4917332;29;20103;-75
2023/07/22 12:20:22;;;;;;;6.47;3.15;;;;;;;22.31;38.83;100373.66;4918052;29;20062;-78
2023/07/22 12:23:25;;;;;;;6.28;3.00;;;;;;;22.28;38.17;100364.16;4917877;29;20079;-77
2023/07/22 12:26:29;;;;;;;7.57;3.28;;;;;;;22.27;38.77;100361.63;4918085;29;20117;-81
2023/07/22 12:29:33;;;;;;;4.90;3.40;;;;;;;22.39;38.64;100368.34;4917054;29;20078;-71
2023/07/22 12:37:29;;;;;;;;;;;;;;;;;;;;;
2023/07/22 13:59:45;;;;;;;4.82;3.65;;;;;;;24.83;30.72;100299.66;4978490;23;20053;-85
2023/07/22 14:03:29;;;;;;;4.20;2.67;;;;;;;25.69;30.04;100294.88;4840388;29;20603;-89
2023/07/22 14:06:37;;;;;;;7.82;3.60;;;;;;;25.22;30.32;100309.41;4840385;29;20079;-89
2023/07/22 14:10:08;;;;;;;4.95;3.45;;;;;;;25.65;30.13;100276.69;4832880;29;20585;-86
2023/07/22 14:13:13;;;;;;;5.70;3.03;;;;;;;26.16;29.29;100277.63;4839239;29;20111;-84
2023/07/22 14:16:16;;;;;;;7.93;3.30;;;;;;;26.46;29.17;100276.72;4820005;29;20045;-85
2023/07/22 14:19:21;;;;;;;6.43;3.13;;;;;;;26.96;28.58;100273.06;4841596;29;20052;-86
2023/07/22 14:22:25;;;;;;;9.52;3.30;;;;;;;27.45;27.97;100269.59;4830266;29;20136;-82
2023/07/22 14:26:03;;;;;;;12.65;7.05;;;;;;;29.74;24.99;100255.38;4841680;29;20170;-87
2023/07/22 15:39:20;;;;;;;4.88;3.42;;;;;;;31.34;21.91;100220.97;4923679;23;20049;-83
2023/07/22 15:46:34;;;;;;;7.50;3.17;;;;;;;31.60;21.79;100217.16;4843692;29;20524;-77
2023/07/22 15:49:37;;;;;;;3.83;2.90;;;;;;;31.49;21.23;100220.59;4842720;29;20412;-77
2023/07/22 15:52:41;;;;;;;7.13;2.60;;;;;;;30.97;21.87;100207.38;4843922;29;20102;-77
2023/07/22 15:55:45;;;;;;;7.68;3.60;;;;;;;29.01;24.06;100209.75;4830547;29;20096;-76
2023/07/22 15:59:03;;;;;;;13.38;3.35;;;;;;;30.73;22.38;100217.13;4825483;29;20085;-75
2023/07/22 16:02:14;;;;;;;4.60;2.63;;;;;;;30.11;22.70;100207.94;4825492;29;20089;-79
2023/07/22 16:05:18;;;;;;;4.32;2.53;;;;;;;28.97;23.91;100201.19;4825391;29;20143;-79
2023/07/22 16:08:23;;;;;;;6.65;2.58;;;;;;;30.00;22.94;100209.47;4814078;29;20053;-77
2023/07/22 16:11:26;;;;;;;8.02;2.72;;;;;;;30.47;22.35;100187.63;4825095;29;20112;-83
2023/07/22 16:14:32;;;;;;;5.10;2.50;;;;;;;30.62;22.01;100193.53;4825184;29;20548;-80
2023/07/22 16:17:35;;;;;;;5.60;2.40;;;;;;;30.14;22.76;100196.72;4825104;29;20053;-78
2023/07/22 16:20:39;;;;;;;5.88;3.03;;;;;;;28.98;24.04;100190.25;4824978;29;20621;-80
2023/07/22 16:23:42;;;;;;;5.90;2.30;;;;;;;28.50;24.29;100168.94;4824282;29;20098;-79
2023/07/22 16:26:45;;;;;;;4.45;2.60;;;;;;;27.91;25.51;100174.16;4824064;29;20416;-80
2023/07/22 16:29:49;;;;;;;3.28;2.35;;;;;;;28.12;25.78;100181.25;4824055;29;20113;-80
2023/07/22 16:32:52;;;;;;;4.47;2.70;;;;;;;27.63;26.40;100187.66;4823910;29;20401;-80
2023/07/22 16:35:55;;;;;;;3.97;2.42;;;;;;;26.65;27.30;100185.75;4824037;29;20108;-79
2023/07/22 16:38:59;;;;;;;6.63;2.67;;;;;;;26.75;27.71;100182.75;4823585;29;20428;-79
2023/07/22 16:42:02;;;;;;;10.45;2.75;;;;;;;26.16;28.09;100185.66;4823832;29;20054;-79
2023/07/22 16:45:07;;;;;;;6.82;2.45;;;;;;;25.69;29.14;100189.63;4823992;29;20073;-80
2023/07/22 16:48:10;;;;;;;4.55;2.80;;;;;;;25.58;29.36;100193.59;4823766;29;20120;-79
2023/07/22 16:51:15;;;;;;;5.90;3.00;;;;;;;25.07;29.58;100185.44;4832272;29;20070;-79
2023/07/22 16:54:20;;;;;;;4.78;2.72;;;;;;;25.18;29.77;100185.03;4841984;29;20104;-79
2023/07/22 16:57:23;;;;;;;5.03;3.30;;;;;;;25.41;29.96;100186.78;4841978;29;20129;-80
2023/07/22 17:00:27;;;;;;;4.28;3.13;;;;;;;25.15;30.22;100187.25;4841449;29;20189;-78
2023/07/22 17:03:30;;;;;;;5.55;3.15;;;;;;;25.38;30.37;100181.78;4842004;29;20075;-78
2023/07/22 17:06:34;;;;;;;7.85;3.30;;;;;;;25.11;30.77;100176.03;4841722;29;20113;-79